Etusivu
METAR-TAF:

METAR-TAF

Lentoasemat :

Tekamah Municipal Airport

Tekamah, Nebraska, Yhdysvallat

Leveyspiiri: 41-46-01N, Pituuspiiri: 096-10-40W, korkeus merenpinnasta: 313 m

Tämänhetkinen sää

Tämä raportti tehtiin 38 minuuttia sitten, kello 13.54 UTC
Tuuli 5 kn lännestä/luoteesta
Lämpötila 16°C
Kosteus 55%
Ilmanpaine 1012 hPa
Näkyvyys: 16.1 km
Pilvistä 9500 ft:n korkeudessa

METAR: KTQE 271354Z AUTO 30005KT 10SM OVC095 16/07 A2988 RMK AO2 RAE1255B13E22 SLP107 P0000 T01610067

Aika: 09:32 (14:32 UTC)


TAF: puuttuu

Säähavainnot ja -ennusteet yli 4000 lentoasemalta (METAR- ja TAF-raportit).

Käytössä olevat sääasemat on merkitty karttaan keltaisilla ja punaisilla pisteillä.

Aseta hiiri pisteen päälle nähdäksesi sääaseman nimen.

Klikkaa sitten nähdäksesi säähavainnot ja -ennusteet.

Kartan vaihtaminen: klikkaa mustalla rastilla varustettuja vihreitä pisteitä, niin voit zoomata sisään; viivalla varustettua vihreää pistettä, niin voit zoomata ulos tai vihreitä nuolia, niin pääset viereisille kartoille.


METAR-TAF: